Time;durP1;ratioP1;P1;durP2;ratioP2;P2;SDS_P1;SDS_P2;PMS_P1;PMS_P2;Temp;Humidity;BMP_temperature;BMP_pressure;BME280_temperature;BME280_humidity;BME280_pressure;Samples;Min_cycle;Max_cycle;Signal;HPM_P1;HPM_P2
2022/06/05 00:01:53;;;;;;;7.55;6.97;;;22.80;78.80;;;;;;5073376;28;20207;-80
2022/06/05 00:04:25;;;;;;;7.40;6.90;;;22.60;79.40;;;;;;5070938;28;20207;-80
2022/06/05 00:07:15;;;;;;;7.53;7.03;;;22.60;79.70;;;;;;5074369;28;20180;-78
2022/06/05 00:09:57;;;;;;;7.10;6.53;;;22.50;80.80;;;;;;5066608;28;20206;-81
2022/06/05 00:12:33;;;;;;;7.10;6.60;;;22.50;81.20;;;;;;5054046;28;20200;-80
2022/06/05 00:14:59;;;;;;;7.07;6.68;;;22.50;81.40;;;;;;5074606;28;20546;-80
2022/06/05 00:17:25;;;;;;;7.07;6.45;;;22.40;81.80;;;;;;5078446;28;20193;-80
2022/06/05 00:19:52;;;;;;;6.90;6.40;;;22.40;82.50;;;;;;5068055;28;20207;-81
2022/06/05 00:22:18;;;;;;;7.38;6.88;;;22.20;83.20;;;;;;5066794;28;20221;-80
2022/06/05 00:24:44;;;;;;;6.78;6.38;;;22.10;83.70;;;;;;5074222;28;20213;-80
2022/06/05 00:27:28;;;;;;;6.47;5.97;;;22.10;84.10;;;;;;5074784;28;20198;-79
2022/06/05 00:30:17;;;;;;;6.93;6.47;;;22.00;84.30;;;;;;5072238;28;20195;-80
2022/06/05 00:33:02;;;;;;;6.95;6.55;;;22.10;84.10;;;;;;5074358;28;20195;-80
2022/06/05 00:35:32;;;;;;;7.97;7.28;;;22.10;84.50;;;;;;5075586;28;20285;-80
2022/06/05 00:38:13;;;;;;;6.57;6.15;;;22.00;85.60;;;;;;5073228;28;20221;-80
2022/06/05 00:40:38;;;;;;;6.68;6.28;;;22.00;85.50;;;;;;5046315;28;20188;-80
2022/06/05 00:43:10;;;;;;;7.15;6.65;;;22.10;85.00;;;;;;5063472;28;20202;-81
2022/06/05 00:45:36;;;;;;;8.02;7.43;;;22.10;84.70;;;;;;5074928;28;20227;-80
2022/06/05 00:48:02;;;;;;;7.60;7.00;;;22.30;84.30;;;;;;5071861;28;20187;-80
2022/06/05 00:50:30;;;;;;;7.65;7.03;;;22.30;83.80;;;;;;5041003;28;20287;-80
2022/06/05 00:53:01;;;;;;;7.07;6.57;;;22.20;83.70;;;;;;5072283;28;20248;-80
2022/06/05 00:55:42;;;;;;;7.30;6.80;;;22.30;83.30;;;;;;5070588;28;20194;-80
2022/06/05 00:58:09;;;;;;;8.15;7.35;;;22.30;83.00;;;;;;5063602;28;20184;-78
2022/06/05 01:00:38;;;;;;;7.82;7.18;;;22.30;82.90;;;;;;5055916;28;20646;-80
2022/06/05 01:03:07;;;;;;;7.60;7.13;;;22.30;83.20;;;;;;5054566;28;20227;-81
2022/06/05 01:05:34;;;;;;;7.18;6.68;;;22.30;83.70;;;;;;5067874;28;20212;-80
2022/06/05 01:07:59;;;;;;;7.60;7.03;;;22.50;82.50;;;;;;5072574;28;20191;-80
2022/06/05 01:10:37;;;;;;;8.05;7.38;;;22.50;82.70;;;;;;5048932;28;20192;-79
2022/06/05 01:13:33;;;;;;;6.95;6.45;;;22.50;82.90;;;;;;5071199;28;20198;-80
2022/06/05 01:16:27;;;;;;;6.95;6.55;;;22.30;84.00;;;;;;5037534;28;20213;-80
2022/06/05 01:19:18;;;;;;;8.18;7.65;;;22.30;84.30;;;;;;5067110;28;20181;-80
2022/06/05 01:21:46;;;;;;;7.82;7.25;;;22.10;85.90;;;;;;5070353;28;20211;-81
2022/06/05 01:24:32;;;;;;;7.75;7.15;;;22.00;86.50;;;;;;5070863;28;20208;-80
2022/06/05 01:27:05;;;;;;;7.57;7.05;;;22.10;86.10;;;;;;5072697;28;20202;-79
2022/06/05 01:29:46;;;;;;;7.70;6.97;;;22.10;88.00;;;;;;5066370;28;20668;-80
2022/06/05 01:32:19;;;;;;;7.75;7.10;;;22.20;90.10;;;;;;5072407;28;20276;-80
2022/06/05 01:34:51;;;;;;;8.07;7.45;;;22.30;89.80;;;;;;5067340;28;20673;-80
2022/06/05 01:37:20;;;;;;;8.48;7.88;;;22.20;89.60;;;;;;5064190;28;20250;-81
2022/06/05 01:39:51;;;;;;;8.70;8.10;;;22.10;91.90;;;;;;5061610;28;20192;-80
2022/06/05 01:42:25;;;;;;;8.85;8.05;;;22.00;92.90;;;;;;5065519;28;20559;-81
2022/06/05 01:44:59;;;;;;;8.90;8.20;;;21.70;94.90;;;;;;5054288;28;20218;-80
2022/06/05 01:47:33;;;;;;;10.05;9.15;;;21.40;96.90;;;;;;5062280;28;20338;-81
2022/06/05 01:50:04;;;;;;;9.55;8.75;;;20.90;99.90;;;;;;5063882;28;20186;-81
2022/06/05 01:52:35;;;;;;;10.18;9.38;;;20.70;99.90;;;;;;5068039;28;20208;-81
2022/06/05 01:55:10;;;;;;;9.68;8.88;;;20.60;99.90;;;;;;5061801;28;20262;-81
2022/06/05 01:57:36;;;;;;;10.30;9.60;;;20.40;99.90;;;;;;5061951;28;20187;-82
2022/06/05 02:00:04;;;;;;;11.02;10.13;;;20.40;99.90;;;;;;5050237;28;20195;-82
2022/06/05 02:02:37;;;;;;;11.05;10.30;;;20.30;99.90;;;;;;5067803;28;20211;-82
2022/06/05 02:05:10;;;;;;;11.27;10.15;;;20.30;99.90;;;;;;5066783;28;20238;-82
2022/06/05 02:07:47;;;;;;;10.90;10.10;;;20.30;99.90;;;;;;5067719;28;20185;-81
2022/06/05 02:10:41;;;;;;;10.45;9.75;;;20.40;99.90;;;;;;5061731;28;20187;-81
2022/06/05 02:13:07;;;;;;;10.63;9.73;;;20.40;99.90;;;;;;5067396;28;20654;-81
2022/06/05 02:15:33;;;;;;;10.35;9.55;;;20.40;99.90;;;;;;5063530;28;20242;-82
2022/06/05 02:18:00;;;;;;;10.18;9.27;;;20.40;99.90;;;;;;5051635;28;20198;-81
2022/06/05 02:20:26;;;;;;;10.10;9.27;;;20.50;99.90;;;;;;5071302;28;20196;-81
2022/06/05 02:22:53;;;;;;;9.73;8.95;;;20.40;99.90;;;;;;5071631;28;20260;-82
2022/06/05 02:25:25;;;;;;;10.32;9.52;;;20.50;99.90;;;;;;5069099;28;20211;-82
2022/06/05 02:27:56;;;;;;;10.32;9.52;;;20.60;99.90;;;;;;5072961;28;20192;-82
2022/06/05 02:30:23;;;;;;;10.70;9.85;;;20.70;99.90;;;;;;5079132;28;20183;-81
2022/06/05 02:33:34;;;;;;;9.77;9.00;;;20.70;99.90;;;;;;5065223;28;20203;-81
2022/06/05 02:36:50;;;;;;;9.90;9.20;;;20.60;99.90;;;;;;5043308;28;20285;-82
2022/06/05 02:39:32;;;;;;;9.50;8.70;;;20.70;99.90;;;;;;5041983;28;20265;-81
2022/06/05 02:42:02;;;;;;;10.80;9.80;;;20.80;99.90;;;;;;5068637;28;20205;-81
2022/06/05 02:44:40;;;;;;;9.38;8.57;;;20.80;99.90;;;;;;5077037;28;20206;-82
2022/06/05 02:47:11;;;;;;;9.73;8.95;;;20.80;99.90;;;;;;5069146;28;20182;-82
2022/06/05 02:50:04;;;;;;;10.27;9.52;;;20.80;99.90;;;;;;5070104;28;20186;-81
2022/06/05 02:52:32;;;;;;;10.15;9.10;;;20.80;99.90;;;;;;5028791;28;20251;-81
2022/06/05 02:55:06;;;;;;;9.40;8.57;;;20.90;99.50;;;;;;5083361;28;20208;-81
2022/06/05 02:57:32;;;;;;;9.93;9.05;;;20.90;98.90;;;;;;5079125;28;20178;-81
2022/06/05 02:59:58;;;;;;;9.70;8.88;;;20.80;99.90;;;;;;5085069;28;20188;-81
2022/06/05 03:05:09;;;;;;;10.00;9.20;;;20.80;99.90;;;;;;5068830;28;20229;-81
2022/06/05 03:07:34;;;;;;;9.85;9.05;;;21.00;99.10;;;;;;5070106;28;20206;-82
2022/06/05 03:10:00;;;;;;;10.50;9.70;;;21.10;99.50;;;;;;5071796;28;20574;-82
2022/06/05 03:12:26;;;;;;;9.68;8.88;;;21.00;98.10;;;;;;5049690;28;20225;-82
2022/06/05 03:14:56;;;;;;;10.02;8.88;;;21.00;97.60;;;;;;5068696;28;20199;-81
2022/06/05 03:17:22;;;;;;;9.80;9.10;;;21.00;97.90;;;;;;5065299;28;20185;-82
2022/06/05 03:19:48;;;;;;;10.18;9.27;;;20.60;99.90;;;;;;5054108;28;20313;-81
2022/06/05 03:22:13;;;;;;;10.80;9.98;;;20.40;99.90;;;;;;5074306;28;20239;-82
2022/06/05 03:24:39;;;;;;;11.23;10.43;;;20.30;99.90;;;;;;5072275;28;20206;-82
2022/06/05 03:27:06;;;;;;;11.98;11.02;;;20.20;99.90;;;;;;5076036;28;20214;-82
2022/06/05 03:29:31;;;;;;;11.25;10.10;;;20.20;99.90;;;;;;5070080;28;20520;-82
2022/06/05 03:31:57;;;;;;;11.00;10.20;;;20.30;99.90;;;;;;5058409;28;20196;-82
2022/06/05 03:34:23;;;;;;;11.80;10.90;;;20.40;99.90;;;;;;5073994;28;20186;-82
2022/06/05 03:36:49;;;;;;;11.48;10.13;;;20.50;99.90;;;;;;5070234;28;20201;-82
2022/06/05 03:39:14;;;;;;;11.13;10.32;;;20.60;99.90;;;;;;5063906;28;20191;-82
2022/06/05 03:41:40;;;;;;;11.57;10.57;;;20.80;99.90;;;;;;5076058;28;20261;-82
2022/06/05 03:44:06;;;;;;;10.52;9.65;;;20.80;99.90;;;;;;5081547;28;20262;-81
2022/06/05 03:46:35;;;;;;;11.77;10.85;;;20.70;99.90;;;;;;5069104;28;20191;-81
2022/06/05 03:49:01;;;;;;;12.50;11.52;;;20.60;99.90;;;;;;5071023;28;20213;-81
2022/06/05 03:51:26;;;;;;;12.02;11.07;;;20.40;99.90;;;;;;5053548;28;20575;-81
2022/06/05 03:53:52;;;;;;;12.13;11.07;;;20.10;99.90;;;;;;5079579;28;20250;-80
2022/06/05 03:56:20;;;;;;;12.00;10.93;;;20.20;99.90;;;;;;5062153;28;20212;-82
2022/06/05 03:58:47;;;;;;;12.70;11.50;;;20.30;99.90;;;;;;5072344;28;20555;-83
2022/06/05 04:01:16;;;;;;;11.95;11.00;;;20.30;99.90;;;;;;5051327;28;20243;-80
2022/06/05 04:03:41;;;;;;;11.30;10.50;;;20.30;99.90;;;;;;5071735;28;20173;-82
2022/06/05 04:06:09;;;;;;;16.73;11.45;;;20.40;99.90;;;;;;5053984;28;20252;-80
2022/06/05 04:08:36;;;;;;;11.88;10.82;;;20.50;99.90;;;;;;5075195;28;20195;-81
2022/06/05 04:11:13;;;;;;;12.50;11.30;;;20.60;99.90;;;;;;5076736;28;20210;-81
2022/06/05 04:13:39;;;;;;;11.13;10.18;;;20.70;99.90;;;;;;5050581;28;20196;-81
2022/06/05 04:16:17;;;;;;;11.68;10.57;;;20.80;99.90;;;;;;5058422;28;20194;-81
2022/06/05 04:18:43;;;;;;;12.07;10.98;;;20.90;99.90;;;;;;5070258;28;20190;-81
2022/06/05 04:21:20;;;;;;;11.52;10.50;;;20.80;99.90;;;;;;5069697;28;20222;-81
2022/06/05 04:23:47;;;;;;;11.95;10.93;;;20.80;99.90;;;;;;5058109;28;20665;-81
2022/06/05 04:26:16;;;;;;;10.85;10.05;;;20.70;99.90;;;;;;5054976;28;20188;-80
2022/06/05 04:28:42;;;;;;;10.60;9.70;;;20.80;99.90;;;;;;5071645;28;20180;-80
2022/06/05 04:31:25;;;;;;;11.40;10.50;;;20.90;99.90;;;;;;5064473;28;20569;-82
2022/06/05 04:33:56;;;;;;;11.25;10.35;;;21.00;99.90;;;;;;5065536;28;20567;-81
2022/06/05 04:36:22;;;;;;;11.70;10.82;;;21.00;99.90;;;;;;5069569;28;20192;-81
2022/06/05 04:38:47;;;;;;;11.73;10.80;;;20.80;99.90;;;;;;5066698;28;20188;-81
2022/06/05 04:41:14;;;;;;;12.43;11.32;;;20.80;99.90;;;;;;5047464;28;20535;-81
2022/06/05 04:43:40;;;;;;;11.02;10.13;;;20.80;99.90;;;;;;5063541;28;20186;-81
2022/06/05 04:46:06;;;;;;;11.57;10.70;;;20.70;99.90;;;;;;5071561;28;20198;-81
2022/06/05 04:48:33;;;;;;;12.30;11.18;;;20.70;99.90;;;;;;5063678;28;20563;-81
2022/06/05 04:51:01;;;;;;;11.90;10.70;;;20.50;99.90;;;;;;5066876;28;20206;-81
2022/06/05 04:53:27;;;;;;;10.43;9.50;;;20.30;99.90;;;;;;5073607;28;20275;-81
2022/06/05 04:55:53;;;;;;;10.85;10.15;;;20.40;99.90;;;;;;5074419;28;20218;-81
2022/06/05 04:58:18;;;;;;;9.75;9.07;;;20.60;99.90;;;;;;5073525;28;20205;-81
2022/06/05 05:00:44;;;;;;;10.45;9.65;;;20.60;99.90;;;;;;5054836;28;20188;-81
2022/06/05 05:03:10;;;;;;;12.90;11.95;;;20.80;99.90;;;;;;5074514;28;20191;-81
2022/06/05 05:05:35;;;;;;;11.32;10.35;;;20.90;99.90;;;;;;5063445;28;20212;-81
2022/06/05 05:08:01;;;;;;;11.75;10.85;;;20.90;99.90;;;;;;5055704;28;20183;-81
2022/06/05 05:10:27;;;;;;;11.35;10.35;;;20.90;99.90;;;;;;5065782;28;20184;-81
2022/06/05 05:12:53;;;;;;;11.30;10.40;;;21.00;99.90;;;;;;5065577;28;20199;-81
2022/06/05 05:15:19;;;;;;;11.95;10.98;;;20.90;99.90;;;;;;5073956;28;20294;-81
2022/06/05 05:17:44;;;;;;;11.35;10.48;;;20.90;99.90;;;;;;5061127;28;20194;-81
2022/06/05 05:20:11;;;;;;;10.73;9.82;;;20.90;99.90;;;;;;5075063;28;20215;-81
2022/06/05 05:22:39;;;;;;;11.18;10.27;;;21.00;99.90;;;;;;5063983;28;20225;-81
2022/06/05 05:25:08;;;;;;;11.57;10.55;;;21.00;99.90;;;;;;5067432;28;20212;-81
2022/06/05 05:27:34;;;;;;;10.93;10.07;;;21.10;99.90;;;;;;5075550;28;20248;-81
2022/06/05 05:30:01;;;;;;;12.13;11.02;;;21.20;99.90;;;;;;5071786;28;20646;-81
2022/06/05 05:32:26;;;;;;;12.18;11.27;;;21.10;99.90;;;;;;5056129;28;20605;-81
2022/06/05 05:34:52;;;;;;;12.07;11.18;;;21.00;99.90;;;;;;5049926;28;20278;-81
2022/06/05 05:37:18;;;;;;;12.60;11.27;;;21.00;99.90;;;;;;5071483;28;20733;-81
2022/06/05 05:42:30;;;;;;;11.60;10.80;;;20.90;99.90;;;;;;5067040;28;20313;-81
2022/06/05 05:44:57;;;;;;;12.68;11.63;;;21.00;99.90;;;;;;5071751;28;20291;-81
2022/06/05 05:47:26;;;;;;;11.45;10.65;;;21.10;99.90;;;;;;5051072;28;20191;-81
2022/06/05 05:50:02;;;;;;;12.32;11.18;;;21.20;99.90;;;;;;5078753;28;20182;-81
2022/06/05 05:52:29;;;;;;;12.77;11.82;;;21.40;99.90;;;;;;5075532;28;20598;-81
2022/06/05 05:54:55;;;;;;;12.02;11.13;;;21.40;99.90;;;;;;5070487;28;20192;-81
2022/06/05 05:57:21;;;;;;;13.18;12.18;;;21.50;99.90;;;;;;5075159;28;20253;-81
2022/06/05 05:59:47;;;;;;;14.15;13.10;;;21.50;99.90;;;;;;5070924;28;20183;-81
2022/06/05 06:02:18;;;;;;;12.95;12.05;;;21.50;99.90;;;;;;5072454;28;20211;-82
2022/06/05 06:04:45;;;;;;;12.82;11.93;;;21.50;99.90;;;;;;5039979;28;20303;-82
2022/06/05 06:07:12;;;;;;;13.70;12.80;;;21.50;99.90;;;;;;5073362;28;20234;-82
2022/06/05 06:09:39;;;;;;;14.02;12.95;;;21.50;99.90;;;;;;5063636;28;20180;-81
2022/06/05 06:12:05;;;;;;;13.80;12.75;;;21.40;99.90;;;;;;5074368;28;20927;-83
2022/06/05 06:14:30;;;;;;;14.32;13.10;;;21.30;99.90;;;;;;5034234;28;20682;-81
2022/06/05 06:16:56;;;;;;;14.23;13.13;;;21.20;99.90;;;;;;5069016;28;20203;-82
2022/06/05 06:19:22;;;;;;;15.10;13.90;;;21.20;99.90;;;;;;5075032;28;20322;-80
2022/06/05 06:21:47;;;;;;;14.40;13.05;;;21.10;99.90;;;;;;5072786;28;20555;-81
2022/06/05 06:24:13;;;;;;;15.05;13.75;;;21.10;99.90;;;;;;5076055;28;20319;-82
2022/06/05 06:26:41;;;;;;;14.20;13.02;;;21.10;99.90;;;;;;5080024;28;20614;-82
2022/06/05 06:29:07;;;;;;;14.00;12.85;;;21.00;99.90;;;;;;5081900;28;20183;-82
2022/06/05 06:31:34;;;;;;;15.57;14.27;;;21.00;99.90;;;;;;5081829;28;20255;-79
2022/06/05 06:34:01;;;;;;;14.27;13.18;;;21.00;99.90;;;;;;5075101;28;20213;-82
2022/06/05 06:36:27;;;;;;;13.40;12.10;;;21.00;99.90;;;;;;5073712;28;20195;-82
2022/06/05 06:38:53;;;;;;;13.80;12.52;;;21.00;99.90;;;;;;5056994;28;20183;-82
2022/06/05 06:41:20;;;;;;;13.52;12.32;;;21.10;99.90;;;;;;5072113;28;20280;-81
2022/06/05 06:43:47;;;;;;;12.55;11.68;;;21.20;99.90;;;;;;5075047;28;20225;-81
2022/06/05 06:46:13;;;;;;;12.38;11.48;;;21.20;99.90;;;;;;5074404;28;20681;-82
2022/06/05 06:48:39;;;;;;;12.25;11.15;;;21.20;99.90;;;;;;5074497;28;20187;-82
2022/06/05 06:51:06;;;;;;;13.35;11.50;;;21.20;99.90;;;;;;5074117;28;20200;-81
2022/06/05 06:53:34;;;;;;;11.73;10.80;;;21.20;99.90;;;;;;5068498;28;20188;-82
2022/06/05 06:56:05;;;;;;;10.90;10.10;;;21.10;99.90;;;;;;5071375;28;20179;-82
2022/06/05 06:58:31;;;;;;;11.20;10.48;;;21.20;99.90;;;;;;5071982;28;20191;-81
2022/06/05 07:00:56;;;;;;;10.48;9.73;;;21.20;99.90;;;;;;5068126;28;20222;-81
2022/06/05 07:03:22;;;;;;;11.30;10.35;;;21.10;99.90;;;;;;5070066;28;20198;-81
2022/06/05 07:05:47;;;;;;;9.90;9.20;;;21.10;99.90;;;;;;5069479;28;20321;-81
2022/06/05 07:08:13;;;;;;;9.98;9.18;;;21.10;99.90;;;;;;5070732;28;20191;-81
2022/06/05 07:10:39;;;;;;;10.63;9.73;;;21.20;99.90;;;;;;5068940;28;20211;-81
2022/06/05 07:13:04;;;;;;;9.82;8.98;;;21.20;99.90;;;;;;5072740;28;20198;-81
2022/06/05 07:15:34;;;;;;;9.75;9.05;;;21.30;99.90;;;;;;5067057;28;20192;-81
2022/06/05 07:18:04;;;;;;;10.93;9.95;;;21.40;99.90;;;;;;5069934;28;20192;-82
2022/06/05 07:20:35;;;;;;;9.23;8.52;;;21.40;99.90;;;;;;5046498;28;20223;-81
2022/06/05 07:23:02;;;;;;;9.38;8.63;;;21.40;99.90;;;;;;5046301;28;20202;-82
2022/06/05 07:25:28;;;;;;;8.95;8.05;;;21.40;99.90;;;;;;5053375;28;20211;-82
2022/06/05 07:27:54;;;;;;;8.32;7.63;;;21.50;99.90;;;;;;5072256;28;20768;-81
2022/06/05 07:30:19;;;;;;;8.65;7.95;;;21.60;99.90;;;;;;5076641;28;20274;-82
2022/06/05 07:32:47;;;;;;;8.75;8.05;;;21.70;99.90;;;;;;5046081;28;20298;-81
2022/06/05 07:35:13;;;;;;;8.30;7.70;;;21.80;99.90;;;;;;5065119;28;20554;-82
2022/06/05 07:37:39;;;;;;;8.45;7.78;;;21.70;99.90;;;;;;5041158;28;20207;-81
2022/06/05 07:40:07;;;;;;;8.48;7.88;;;21.80;99.90;;;;;;5082150;28;20191;-81
2022/06/05 07:42:36;;;;;;;8.13;7.53;;;21.90;99.90;;;;;;5081278;28;20262;-82
2022/06/05 07:45:02;;;;;;;8.23;7.63;;;21.90;99.90;;;;;;5082696;28;20203;-82
2022/06/05 07:47:28;;;;;;;7.88;7.22;;;21.90;99.90;;;;;;5066046;28;20188;-81
2022/06/05 07:49:54;;;;;;;8.02;7.43;;;21.90;99.90;;;;;;5071007;28;20175;-82
2022/06/05 07:55:04;;;;;;;8.50;7.80;;;22.10;99.90;;;;;;5063836;28;20222;-80
2022/06/05 07:57:29;;;;;;;8.63;7.82;;;22.10;99.90;;;;;;5044332;28;20271;-80
2022/06/05 07:59:55;;;;;;;8.48;7.88;;;22.30;99.90;;;;;;5065702;28;20198;-80
2022/06/05 08:02:24;;;;;;;8.68;7.88;;;22.30;99.90;;;;;;5065834;28;20223;-81
2022/06/05 08:04:51;;;;;;;8.65;8.05;;;22.30;99.90;;;;;;5066844;28;20228;-79
2022/06/05 08:07:20;;;;;;;8.75;8.05;;;22.40;99.90;;;;;;5068520;28;20192;-79
2022/06/05 08:09:46;;;;;;;8.23;7.72;;;22.50;99.90;;;;;;5060662;28;20192;-79
2022/06/05 08:12:14;;;;;;;8.20;7.50;;;22.60;99.90;;;;;;5064290;28;20211;-79
2022/06/05 08:14:43;;;;;;;8.73;8.02;;;22.60;99.90;;;;;;5066381;28;20191;-79
2022/06/05 08:17:13;;;;;;;8.07;7.55;;;22.60;99.90;;;;;;5064975;28;20219;-79
2022/06/05 08:19:41;;;;;;;8.65;8.05;;;22.60;99.90;;;;;;5072460;28;20204;-80
2022/06/05 08:22:09;;;;;;;8.57;7.97;;;22.70;99.90;;;;;;5073177;28;20717;-79
2022/06/05 08:24:35;;;;;;;8.45;7.85;;;22.80;99.90;;;;;;5073781;28;20307;-79
2022/06/05 08:27:01;;;;;;;8.20;7.40;;;22.80;99.90;;;;;;5073980;28;20218;-79
2022/06/05 08:29:27;;;;;;;8.93;8.20;;;23.00;99.90;;;;;;5054253;28;20801;-80
2022/06/05 08:31:53;;;;;;;9.13;8.43;;;23.00;98.60;;;;;;5071836;28;20242;-79
2022/06/05 08:34:20;;;;;;;8.60;7.90;;;23.10;96.50;;;;;;5071124;28;20191;-79
2022/06/05 08:36:46;;;;;;;8.50;7.90;;;23.30;97.60;;;;;;5071972;28;20195;-79
2022/06/05 08:42:27;;;;;;;8.52;7.88;;;23.40;96.80;;;;;;5071773;28;20364;-79
2022/06/05 08:45:16;;;;;;;8.32;7.65;;;23.60;93.80;;;;;;5064935;28;20231;-79
2022/06/05 08:47:45;;;;;;;8.32;7.68;;;23.60;93.80;;;;;;5073101;28;20256;-79
2022/06/05 08:50:40;;;;;;;8.50;7.88;;;23.70;92.00;;;;;;5071819;28;20187;-79
2022/06/05 08:53:14;;;;;;;10.20;9.60;;;24.00;90.90;;;;;;5069069;28;20180;-79
2022/06/05 08:55:43;;;;;;;12.35;11.48;;;24.00;92.90;;;;;;5070628;28;20179;-80
2022/06/05 08:58:15;;;;;;;12.75;11.93;;;23.90;97.80;;;;;;5072863;28;20183;-79
2022/06/05 09:01:04;;;;;;;15.60;14.32;;;23.60;98.00;;;;;;5071621;28;20184;-80
2022/06/05 09:04:11;;;;;;;18.30;16.10;;;23.00;99.90;;;;;;5071782;28;20674;-79
2022/06/05 09:06:40;;;;;;;16.73;15.50;;;23.00;99.90;;;;;;5026777;28;20253;-79
2022/06/05 09:09:12;;;;;;;18.20;16.70;;;23.20;99.60;;;;;;5067735;28;20478;-79
2022/06/05 09:11:38;;;;;;;18.25;16.80;;;23.30;99.70;;;;;;5049689;28;20671;-79
2022/06/05 09:14:11;;;;;;;19.30;17.70;;;23.10;99.20;;;;;;5066525;28;20269;-79
2022/06/05 09:16:52;;;;;;;19.40;17.88;;;23.00;99.60;;;;;;5051909;28;20191;-78
2022/06/05 09:19:30;;;;;;;19.65;18.00;;;23.00;99.30;;;;;;5053294;28;20182;-79
2022/06/05 09:22:15;;;;;;;20.25;18.45;;;23.10;99.90;;;;;;5070212;28;20238;-79
2022/06/05 09:25:05;;;;;;;19.67;18.27;;;23.00;99.90;;;;;;5069237;28;20207;-79
2022/06/05 09:27:49;;;;;;;21.15;19.55;;;23.20;98.20;;;;;;5064552;28;20620;-79
2022/06/05 09:30:30;;;;;;;21.15;19.40;;;23.30;98.90;;;;;;5063295;28;20171;-79
2022/06/05 09:33:00;;;;;;;21.08;19.65;;;23.20;98.50;;;;;;5070730;28;20202;-79
2022/06/05 09:35:31;;;;;;;22.33;20.52;;;23.20;96.50;;;;;;5069696;28;20194;-78
2022/06/05 09:37:57;;;;;;;21.15;19.42;;;23.20;97.10;;;;;;5070415;28;20191;-79
2022/06/05 09:40:34;;;;;;;20.98;19.27;;;23.20;97.10;;;;;;5070231;28;20183;-79
2022/06/05 09:43:41;;;;;;;20.48;18.88;;;23.50;97.00;;;;;;5071236;28;20268;-79
2022/06/05 09:46:25;;;;;;;22.17;20.58;;;23.30;96.30;;;;;;5064068;28;20199;-79
2022/06/05 09:49:10;;;;;;;20.65;18.95;;;23.20;97.10;;;;;;5062926;28;20326;-79
2022/06/05 09:51:37;;;;;;;19.63;18.30;;;23.40;97.80;;;;;;5068095;28;20231;-79
2022/06/05 09:54:23;;;;;;;19.08;17.67;;;23.30;97.50;;;;;;5071114;28;20628;-79
2022/06/05 10:00:13;;;;;;;17.92;16.52;;;23.20;98.20;;;;;;5075622;28;20234;-79
2022/06/05 10:02:39;;;;;;;17.95;16.50;;;23.50;96.20;;;;;;5076761;28;20210;-79
2022/06/05 10:05:26;;;;;;;16.38;15.07;;;23.80;95.90;;;;;;5069885;28;20276;-80
2022/06/05 10:07:58;;;;;;;16.15;14.95;;;23.80;96.20;;;;;;5077612;28;20233;-79
2022/06/05 10:10:38;;;;;;;16.00;14.52;;;24.00;93.90;;;;;;5070513;28;20185;-79
2022/06/05 10:13:19;;;;;;;13.80;12.75;;;24.40;93.00;;;;;;5069642;28;20274;-79
2022/06/05 10:15:47;;;;;;;15.05;13.95;;;24.60;91.80;;;;;;5065803;28;20184;-79
2022/06/05 10:18:30;;;;;;;14.57;13.45;;;24.70;90.40;;;;;;5057077;28;20249;-80
2022/06/05 10:21:07;;;;;;;15.38;14.18;;;24.90;90.30;;;;;;5077410;28;20195;-79
2022/06/05 10:23:49;;;;;;;13.93;12.90;;;24.80;89.40;;;;;;5070558;28;20195;-79
2022/06/05 10:26:23;;;;;;;14.32;13.25;;;25.30;85.80;;;;;;5075723;28;20191;-80
2022/06/05 10:28:52;;;;;;;14.07;12.98;;;25.30;86.80;;;;;;5052104;28;20637;-79
2022/06/05 10:31:21;;;;;;;13.77;12.80;;;25.30;87.40;;;;;;5071940;28;20200;-79
2022/06/05 10:33:48;;;;;;;14.25;13.13;;;25.40;86.80;;;;;;5072921;28;20566;-80
2022/06/05 10:36:16;;;;;;;12.65;11.65;;;25.30;88.00;;;;;;5075382;28;20637;-79
2022/06/05 10:38:52;;;;;;;12.02;11.05;;;25.40;86.30;;;;;;5071058;28;20216;-82
2022/06/05 10:41:22;;;;;;;12.73;11.60;;;25.40;86.50;;;;;;5078282;28;20230;-82
2022/06/05 10:44:22;;;;;;;12.40;11.30;;;25.20;86.80;;;;;;5074264;28;20183;-81
2022/06/05 10:47:03;;;;;;;12.18;11.25;;;25.20;86.50;;;;;;5077637;28;20286;-80
2022/06/05 10:49:42;;;;;;;12.77;11.75;;;25.20;87.80;;;;;;5076185;28;20179;-83
2022/06/05 10:52:30;;;;;;;12.23;11.02;;;25.20;86.70;;;;;;5077199;28;20203;-82
2022/06/05 10:55:37;;;;;;;12.18;11.18;;;25.00;87.90;;;;;;5067963;28;20184;-82
2022/06/05 10:58:15;;;;;;;11.13;10.43;;;24.80;89.40;;;;;;5074601;28;20626;-82
2022/06/05 11:01:12;;;;;;;11.32;10.43;;;24.70;90.10;;;;;;5075252;28;20197;-82
2022/06/05 11:04:00;;;;;;;10.57;9.88;;;25.00;90.50;;;;;;5076779;28;20195;-82
2022/06/05 11:06:30;;;;;;;11.63;10.63;;;25.40;89.50;;;;;;5076061;28;20465;-82
2022/06/05 11:09:11;;;;;;;12.50;9.77;;;25.80;84.80;;;;;;5074172;28;20266;-82
2022/06/05 11:15:08;;;;;;;11.00;10.13;;;26.40;81.80;;;;;;5080472;28;20183;-82
2022/06/05 11:18:09;;;;;;;10.50;9.48;;;26.80;81.50;;;;;;5079069;28;20195;-82
2022/06/05 11:20:39;;;;;;;9.65;8.77;;;27.00;82.30;;;;;;5079112;28;20241;-80
2022/06/05 11:23:17;;;;;;;9.65;8.75;;;27.00;79.60;;;;;;5062645;28;20172;-82
2022/06/05 11:25:59;;;;;;;10.20;9.40;;;26.90;76.40;;;;;;5081228;28;20268;-82
2022/06/05 11:28:59;;;;;;;9.90;9.15;;;26.70;78.50;;;;;;5081809;28;20175;-81
2022/06/05 11:32:02;;;;;;;9.32;8.43;;;26.70;80.20;;;;;;5080290;28;20207;-82
2022/06/05 11:34:45;;;;;;;10.02;9.13;;;26.60;79.70;;;;;;5074517;28;20222;-82
2022/06/05 11:37:23;;;;;;;9.73;8.80;;;26.30;81.00;;;;;;5081118;28;20260;-80
2022/06/05 11:39:58;;;;;;;3.70;3.40;;;26.20;82.10;;;;;;5082033;28;20171;-80
2022/06/05 11:42:29;;;;;;;3.80;3.15;;;25.80;71.60;;;;;;5080855;28;20229;-80
2022/06/05 11:45:30;;;;;;;3.42;3.00;;;25.40;73.10;;;;;;5079610;28;20231;-82
2022/06/05 11:48:03;;;;;;;2.90;2.70;;;25.10;76.10;;;;;;5078858;28;20175;-82
2022/06/05 11:51:23;;;;;;;4.95;3.85;;;24.70;77.90;;;;;;5079389;28;20178;-82
2022/06/05 11:54:09;;;;;;;13.25;5.88;;;24.40;83.20;;;;;;5009433;28;20271;-83
2022/06/05 11:56:56;;;;;;;10.07;4.00;;;23.70;93.70;;;;;;5065822;28;20659;-82
2022/06/05 11:59:53;;;;;;;5.35;4.25;;;23.20;94.60;;;;;;5074525;28;20175;-82
2022/06/05 12:02:38;;;;;;;5.60;4.03;;;23.10;91.90;;;;;;5074701;28;20608;-82
2022/06/05 12:05:29;;;;;;;5.65;3.95;;;23.00;97.10;;;;;;5072682;28;20280;-82
2022/06/05 12:08:05;;;;;;;3.60;3.30;;;23.10;99.90;;;;;;5057549;28;20176;-80
2022/06/05 12:10:34;;;;;;;5.68;4.13;;;23.20;97.80;;;;;;5082560;28;20183;-81
2022/06/05 12:13:25;;;;;;;4.65;4.07;;;23.00;99.20;;;;;;5077397;28;20211;-83
2022/06/05 12:16:00;;;;;;;5.60;4.20;;;23.00;99.40;;;;;;5079833;28;20218;-79
2022/06/05 12:18:59;;;;;;;4.55;4.15;;;23.00;99.90;;;;;;5086473;28;20188;-83
2022/06/05 12:21:55;;;;;;;4.03;3.70;;;23.00;97.90;;;;;;5068337;28;20224;-82
2022/06/05 12:24:39;;;;;;;3.95;3.58;;;23.00;97.50;;;;;;5073033;28;20562;-81
2022/06/05 12:27:16;;;;;;;3.60;3.30;;;22.90;96.10;;;;;;5071153;28;20689;-82
2022/06/05 12:29:49;;;;;;;4.30;3.30;;;23.00;98.20;;;;;;5051918;28;20274;-81
2022/06/05 12:32:35;;;;;;;4.93;3.42;;;22.90;94.90;;;;;;5069846;28;20239;-81
2022/06/05 12:35:13;;;;;;;3.50;3.20;;;22.90;94.50;;;;;;5066530;28;20210;-82
2022/06/05 12:37:58;;;;;;;3.67;3.38;;;23.10;97.10;;;;;;5067228;28;20191;-82
2022/06/05 12:40:36;;;;;;;3.55;3.20;;;23.00;97.20;;;;;;5074588;28;20272;-82
2022/06/05 12:43:15;;;;;;;3.35;3.05;;;23.00;93.30;;;;;;5069078;28;20218;-82
2022/06/05 12:45:43;;;;;;;5.32;3.33;;;23.00;92.80;;;;;;5071361;28;20191;-83
2022/06/05 12:48:28;;;;;;;3.92;3.20;;;23.20;97.30;;;;;;5069081;28;20203;-83
2022/06/05 12:51:21;;;;;;;7.80;3.30;;;23.50;94.50;;;;;;5069022;28;20278;-82
2022/06/05 12:54:05;;;;;;;5.05;3.30;;;23.80;96.20;;;;;;5065113;28;20180;-83
2022/06/05 12:56:50;;;;;;;3.80;3.50;;;23.80;93.90;;;;;;5053948;28;20210;-82
2022/06/05 12:59:40;;;;;;;5.97;3.60;;;23.70;92.80;;;;;;5073028;28;20198;-83
2022/06/05 13:02:30;;;;;;;3.65;3.05;;;23.60;93.40;;;;;;5073873;28;20210;-82
2022/06/05 13:05:38;;;;;;;4.60;3.22;;;23.40;97.90;;;;;;5072507;28;20211;-80
2022/06/05 13:08:14;;;;;;;4.57;3.40;;;23.30;94.90;;;;;;5062609;28;20230;-80
2022/06/05 13:10:53;;;;;;;4.15;3.47;;;23.30;94.40;;;;;;5068130;28;20191;-83
2022/06/05 13:13:37;;;;;;;3.63;3.17;;;23.50;94.10;;;;;;5050739;28;20194;-83
2022/06/05 13:16:06;;;;;;;3.75;3.45;;;23.80;90.10;;;;;;5065453;28;20187;-83
2022/06/05 13:19:01;;;;;;;4.03;3.63;;;23.50;92.70;;;;;;5068582;28;20191;-83
2022/06/05 13:22:01;;;;;;;3.83;3.53;;;23.80;94.20;;;;;;5068212;28;20218;-83
2022/06/05 13:24:49;;;;;;;3.63;3.28;;;24.00;92.70;;;;;;5057331;28;20215;-84
2022/06/05 13:27:16;;;;;;;3.63;3.33;;;24.60;93.00;;;;;;5072608;28;20390;-83
2022/06/05 13:30:24;;;;;;;4.22;3.88;;;24.70;87.60;;;;;;5075450;28;20198;-82